createdAt,value
2023-03-08T00:01:03.217Z,2.19
2023-03-08T00:03:29.601Z,2.17
2023-03-08T00:05:55.975Z,2.18
2023-03-08T00:08:22.334Z,2.19
2023-03-08T00:10:48.746Z,2.18
2023-03-08T00:13:15.085Z,2.31
2023-03-08T00:15:41.519Z,2.22
2023-03-08T00:18:07.892Z,2.04
2023-03-08T00:20:34.338Z,2.01
2023-03-08T00:23:00.676Z,2.11
2023-03-08T00:25:27.057Z,2.21
2023-03-08T00:27:53.470Z,2.29
2023-03-08T00:30:19.967Z,2.19
2023-03-08T00:32:46.907Z,2.18
2023-03-08T00:35:13.288Z,2.06
2023-03-08T00:37:39.676Z,2.09
2023-03-08T00:40:07.216Z,2.00
2023-03-08T00:42:34.828Z,1.95
2023-03-08T00:45:01.448Z,1.93
2023-03-08T00:47:27.946Z,2.00
2023-03-08T00:49:54.305Z,2.15
2023-03-08T00:52:20.827Z,2.25
2023-03-08T00:54:47.187Z,2.38
2023-03-08T00:57:13.544Z,2.44
2023-03-08T00:59:39.917Z,2.58
2023-03-08T01:02:06.328Z,2.67
2023-03-08T01:04:33.633Z,2.85
2023-03-08T01:07:00.923Z,2.96
2023-03-08T01:09:27.280Z,3.12
2023-03-08T01:11:53.676Z,3.20
2023-03-08T01:14:20.100Z,3.25
2023-03-08T01:16:46.534Z,3.27
2023-03-08T01:19:13.012Z,3.27
2023-03-08T01:21:41.496Z,3.22
2023-03-08T01:24:07.933Z,3.22
2023-03-08T01:26:34.340Z,3.27
2023-03-08T01:29:01.029Z,3.22
2023-03-08T01:31:31.197Z,3.22
2023-03-08T01:33:59.208Z,3.21
2023-03-08T01:36:27.211Z,3.12
2023-03-08T01:38:53.643Z,3.14
2023-03-08T01:41:23.965Z,3.19
2023-03-08T01:43:51.659Z,3.17
2023-03-08T01:46:31.132Z,3.09
2023-03-08T01:49:25.857Z,2.95
2023-03-08T01:52:10.800Z,2.83
2023-03-08T01:54:42.056Z,2.86
2023-03-08T01:57:17.584Z,2.90
2023-03-08T01:59:46.378Z,2.93
2023-03-08T02:02:12.790Z,2.85
2023-03-08T02:04:40.674Z,2.89
2023-03-08T02:07:10.192Z,2.92
2023-03-08T02:09:36.771Z,2.83
2023-03-08T02:12:10.956Z,2.81
2023-03-08T02:14:37.356Z,2.91
2023-03-08T02:17:03.768Z,2.93
2023-03-08T02:19:45.211Z,2.85
2023-03-08T02:22:14.095Z,2.65
2023-03-08T02:24:40.485Z,2.45
2023-03-08T02:27:12.872Z,2.39
2023-03-08T02:29:39.349Z,2.32
2023-03-08T02:32:06.302Z,2.28
2023-03-08T02:34:32.681Z,2.17
2023-03-08T02:36:59.052Z,2.11
2023-03-08T02:39:25.461Z,2.06
2023-03-08T02:41:54.715Z,2.13
2023-03-08T02:44:21.208Z,2.04
2023-03-08T02:46:47.973Z,1.98
2023-03-08T02:49:15.085Z,1.94
2023-03-08T02:51:41.440Z,1.89
2023-03-08T02:54:07.811Z,1.96
2023-03-08T02:56:34.290Z,1.84
2023-03-08T02:59:00.693Z,1.72
2023-03-08T03:01:27.596Z,1.69
2023-03-08T03:03:55.264Z,1.71
2023-03-08T03:06:22.061Z,1.84
2023-03-08T03:08:51.964Z,1.88
2023-03-08T03:11:21.318Z,1.68
2023-03-08T03:13:55.389Z,1.68
2023-03-08T03:16:22.814Z,1.91
2023-03-08T03:18:49.156Z,1.85
2023-03-08T03:21:15.539Z,1.71
2023-03-08T03:23:42.214Z,1.65
2023-03-08T03:26:16.239Z,1.72
2023-03-08T03:28:44.343Z,1.83
2023-03-08T03:31:16.685Z,1.83
2023-03-08T03:33:44.373Z,1.78
2023-03-08T03:36:18.667Z,1.88
2023-03-08T03:38:45.748Z,2.06
2023-03-08T03:41:18.189Z,2.11
2023-03-08T03:43:45.990Z,2.26
2023-03-08T03:46:16.662Z,2.41
2023-03-08T03:48:44.832Z,2.54
2023-03-08T03:51:17.893Z,2.54
2023-03-08T03:53:48.693Z,2.52
2023-03-08T03:56:21.246Z,2.49
2023-03-08T03:58:48.711Z,2.57
2023-03-08T04:01:21.373Z,2.77
2023-03-08T04:03:48.700Z,2.90
2023-03-08T04:06:19.086Z,3.00
2023-03-08T04:08:46.281Z,2.84
2023-03-08T04:11:20.291Z,2.63
2023-03-08T04:13:47.389Z,2.36
2023-03-08T04:16:23.167Z,2.21
2023-03-08T04:18:54.077Z,2.25
2023-03-08T04:21:20.642Z,2.22
2023-03-08T04:23:47.340Z,2.18
2023-03-08T04:26:13.848Z,2.21
2023-03-08T04:28:41.321Z,2.31
2023-03-08T04:31:25.831Z,2.30
2023-03-08T04:33:52.796Z,2.33
2023-03-08T04:36:20.213Z,2.16
2023-03-08T04:38:47.681Z,2.19
2023-03-08T04:41:14.754Z,2.33
2023-03-08T04:43:59.092Z,2.51
2023-03-08T04:46:37.150Z,2.63
2023-03-08T04:49:03.930Z,2.62
2023-03-08T04:51:36.631Z,2.41
2023-03-08T04:54:05.149Z,2.24
2023-03-08T04:56:33.951Z,2.30
2023-03-08T04:59:00.754Z,2.19
2023-03-08T05:01:27.806Z,2.09
2023-03-08T05:03:55.342Z,2.14
2023-03-08T05:06:28.121Z,2.23
2023-03-08T05:08:56.644Z,2.33
2023-03-08T05:11:26.606Z,2.35
2023-03-08T05:13:56.271Z,2.29
2023-03-08T05:16:25.909Z,2.05
2023-03-08T05:18:59.021Z,1.94
2023-03-08T05:21:31.152Z,1.93
2023-03-08T05:24:04.114Z,2.10
2023-03-08T05:26:34.043Z,2.24
2023-03-08T05:29:03.397Z,2.33
2023-03-08T05:31:30.991Z,2.29
2023-03-08T05:33:59.404Z,2.27
2023-03-08T05:36:33.602Z,2.13
2023-03-08T05:39:01.792Z,2.12
2023-03-08T05:41:36.810Z,2.19
2023-03-08T05:44:04.330Z,2.23
2023-03-08T05:46:32.755Z,2.24
2023-03-08T05:49:01.596Z,2.38
2023-03-08T05:51:31.895Z,2.57
2023-03-08T05:53:59.290Z,2.59
2023-03-08T05:56:30.173Z,2.48
2023-03-08T05:59:11.576Z,2.39
2023-03-08T06:01:38.221Z,2.22
2023-03-08T06:04:15.524Z,2.32
2023-03-08T06:06:44.291Z,2.27
2023-03-08T06:09:10.704Z,2.29
2023-03-08T06:11:39.823Z,2.20
2023-03-08T06:14:06.757Z,2.19
2023-03-08T06:16:34.760Z,2.17
2023-03-08T06:19:01.881Z,2.06
2023-03-08T06:21:29.301Z,2.00
2023-03-08T06:23:59.918Z,1.94
2023-03-08T06:26:26.496Z,2.14
2023-03-08T06:28:52.872Z,2.20
2023-03-08T06:31:20.610Z,2.14
2023-03-08T06:33:47.483Z,2.17
2023-03-08T06:36:22.018Z,2.04
2023-03-08T06:38:51.944Z,2.02
2023-03-08T06:41:19.866Z,1.94
2023-03-08T06:43:50.540Z,1.97
2023-03-08T06:46:19.066Z,2.01
2023-03-08T06:48:47.012Z,2.03
2023-03-08T06:51:15.057Z,2.09
2023-03-08T06:53:44.256Z,2.27
2023-03-08T06:56:13.471Z,2.22
2023-03-08T06:58:40.386Z,2.15
2023-03-08T07:01:06.776Z,2.16
2023-03-08T07:03:33.804Z,2.37
2023-03-08T07:06:02.197Z,2.45
2023-03-08T07:08:28.898Z,2.38
2023-03-08T07:10:55.592Z,2.33
2023-03-08T07:13:23.563Z,2.35
2023-03-08T07:15:50.861Z,2.38
2023-03-08T07:18:18.163Z,2.36
2023-03-08T07:20:45.998Z,2.40
2023-03-08T07:23:12.353Z,2.35
2023-03-08T07:25:45.663Z,2.45
2023-03-08T07:28:12.119Z,2.64
2023-03-08T07:30:38.723Z,2.66
2023-03-08T07:33:05.231Z,2.60
2023-03-08T07:35:31.582Z,2.66
2023-03-08T07:37:58.017Z,2.69
2023-03-08T07:40:24.425Z,2.69
2023-03-08T07:42:54.650Z,2.87
2023-03-08T07:45:35.300Z,2.88
2023-03-08T07:48:06.063Z,2.85
2023-03-08T07:50:32.452Z,2.74
2023-03-08T07:53:00.043Z,2.70
2023-03-08T07:55:27.634Z,2.87
2023-03-08T07:57:57.617Z,3.07
2023-03-08T08:00:24.309Z,3.20
2023-03-08T08:03:01.381Z,3.25
2023-03-08T08:05:27.923Z,3.18
2023-03-08T08:07:54.347Z,3.05
2023-03-08T08:10:20.776Z,2.96
2023-03-08T08:12:47.168Z,2.90
2023-03-08T08:15:13.644Z,3.01
2023-03-08T08:17:39.974Z,3.09
2023-03-08T08:20:08.008Z,3.22
2023-03-08T08:22:39.095Z,3.37
2023-03-08T08:25:06.586Z,3.46
2023-03-08T08:27:33.362Z,3.52
2023-03-08T08:29:59.841Z,3.39
2023-03-08T08:32:26.769Z,3.28
2023-03-08T08:34:57.445Z,3.23
2023-03-08T08:37:24.987Z,3.20
2023-03-08T08:39:55.353Z,3.13
2023-03-08T08:42:21.861Z,3.03
2023-03-08T08:44:55.095Z,3.09
2023-03-08T08:47:21.508Z,3.13
2023-03-08T08:49:47.861Z,3.25
2023-03-08T08:52:14.302Z,3.33
2023-03-08T08:54:40.873Z,3.38
2023-03-08T08:57:07.295Z,3.50
2023-03-08T08:59:34.097Z,3.59
2023-03-08T09:02:00.648Z,3.70
2023-03-08T09:04:27.177Z,3.57
2023-03-08T09:06:54.152Z,3.47
2023-03-08T09:09:27.010Z,3.43
2023-03-08T09:11:55.467Z,3.46
2023-03-08T09:14:26.093Z,3.42
2023-03-08T09:16:56.088Z,3.26
2023-03-08T09:19:22.508Z,3.16
2023-03-08T09:21:52.215Z,3.10
2023-03-08T09:24:21.989Z,3.09
2023-03-08T09:26:48.473Z,3.25
2023-03-08T09:29:14.831Z,3.19
2023-03-08T09:31:42.312Z,2.99
2023-03-08T09:34:10.327Z,2.97
2023-03-08T09:36:39.363Z,2.97
2023-03-08T09:39:05.995Z,3.01
2023-03-08T09:41:46.463Z,3.02
2023-03-08T09:44:51.571Z,3.01
2023-03-08T09:47:59.957Z,3.02
2023-03-08T09:50:45.382Z,3.02
2023-03-08T09:53:32.253Z,3.14
2023-03-08T09:56:04.790Z,3.30
2023-03-08T09:58:37.550Z,3.30
2023-03-08T10:01:21.724Z,3.21
2023-03-08T10:04:09.463Z,3.29
2023-03-08T10:06:51.549Z,3.43
2023-03-08T10:09:24.809Z,3.57
2023-03-08T10:12:32.909Z,3.68
2023-03-08T10:15:09.426Z,3.60
2023-03-08T10:17:46.156Z,3.65
2023-03-08T10:20:27.247Z,3.67
2023-03-08T10:22:58.966Z,3.63
2023-03-08T10:25:31.321Z,3.66
2023-03-08T10:28:01.587Z,3.61
2023-03-08T10:30:34.281Z,3.67
2023-03-08T10:33:11.402Z,3.70
2023-03-08T10:35:52.537Z,3.72
2023-03-08T10:38:18.939Z,3.86
2023-03-08T10:40:45.996Z,3.95
2023-03-08T10:43:28.496Z,3.87
2023-03-08T10:46:00.934Z,3.78
2023-03-08T10:48:27.442Z,3.79
2023-03-08T10:51:06.469Z,3.87
2023-03-08T10:53:33.278Z,3.90
2023-03-08T10:56:01.327Z,4.17
2023-03-08T10:58:39.506Z,4.41
2023-03-08T11:01:22.573Z,4.56
2023-03-08T11:04:12.715Z,4.40
2023-03-08T11:06:39.289Z,4.25
2023-03-08T11:09:20.768Z,4.28
2023-03-08T11:11:47.186Z,4.39
2023-03-08T11:14:14.839Z,4.52
2023-03-08T11:16:53.405Z,4.69
2023-03-08T11:19:37.906Z,4.69
2023-03-08T11:22:07.240Z,4.70
2023-03-08T11:24:57.224Z,4.67
2023-03-08T11:27:51.617Z,4.77
2023-03-08T11:30:29.838Z,4.98
2023-03-08T11:33:23.905Z,5.32
2023-03-08T11:36:04.307Z,5.52
2023-03-08T11:38:37.841Z,5.69
2023-03-08T11:41:23.604Z,5.61
2023-03-08T11:44:18.002Z,5.59
2023-03-08T11:47:00.473Z,5.66
2023-03-08T11:49:51.119Z,5.63
2023-03-08T11:52:37.229Z,5.56
2023-03-08T11:55:28.696Z,5.68
2023-03-08T11:58:03.205Z,5.79
2023-03-08T12:00:39.005Z,6.03
2023-03-08T12:03:15.268Z,6.19
2023-03-08T12:05:49.693Z,6.27
2023-03-08T12:08:32.018Z,6.39
2023-03-08T12:11:07.779Z,6.48
2023-03-08T12:13:37.733Z,6.46
2023-03-08T12:16:14.431Z,6.48
2023-03-08T12:18:51.529Z,6.53
2023-03-08T12:21:29.009Z,6.56
2023-03-08T12:24:13.605Z,6.62
2023-03-08T12:26:46.085Z,6.69
2023-03-08T12:29:22.844Z,6.82
2023-03-08T12:31:50.793Z,6.95
2023-03-08T12:34:59.683Z,7.04
2023-03-08T12:37:28.539Z,7.06
2023-03-08T12:40:07.714Z,7.10
2023-03-08T12:42:37.345Z,7.07
2023-03-08T12:45:18.873Z,7.03
2023-03-08T12:48:13.553Z,7.01
2023-03-08T12:50:44.965Z,6.97
2023-03-08T12:53:33.275Z,6.92
2023-03-08T12:56:02.693Z,6.86
2023-03-08T12:58:31.318Z,6.82
2023-03-08T13:01:03.911Z,6.74
2023-03-08T13:03:41.242Z,6.64
2023-03-08T13:06:22.682Z,6.52
2023-03-08T13:08:55.597Z,6.49
2023-03-08T13:11:24.167Z,6.48
2023-03-08T13:13:57.131Z,6.52
2023-03-08T13:16:26.226Z,6.59
2023-03-08T13:19:13.430Z,6.63
2023-03-08T13:21:48.808Z,6.68
2023-03-08T13:24:34.922Z,6.72
2023-03-08T13:27:17.938Z,6.77
2023-03-08T13:29:46.632Z,6.83
2023-03-08T13:32:24.123Z,6.92
2023-03-08T13:35:02.213Z,6.97
2023-03-08T13:37:30.133Z,6.98
2023-03-08T13:39:58.950Z,6.91
2023-03-08T13:42:29.420Z,6.76
2023-03-08T13:45:09.790Z,6.69
2023-03-08T13:47:38.840Z,6.80
2023-03-08T13:50:06.094Z,6.88
2023-03-08T13:52:37.174Z,7.01
2023-03-08T13:55:08.457Z,7.15
2023-03-08T13:57:37.755Z,7.26
2023-03-08T14:00:19.577Z,7.32
2023-03-08T14:02:47.284Z,7.42
2023-03-08T14:05:18.124Z,7.51
2023-03-08T14:07:54.870Z,7.61
2023-03-08T14:10:24.394Z,7.70
2023-03-08T14:12:50.818Z,7.81
2023-03-08T14:15:18.346Z,7.98
2023-03-08T14:17:44.850Z,8.26
2023-03-08T14:20:21.321Z,8.58
2023-03-08T14:22:50.220Z,8.52
2023-03-08T14:25:25.093Z,8.31
2023-03-08T14:27:52.811Z,8.11
2023-03-08T14:30:22.172Z,7.97
2023-03-08T14:33:07.954Z,7.84
2023-03-08T14:35:40.509Z,7.73
2023-03-08T14:38:31.701Z,7.58
2023-03-08T14:41:03.662Z,7.52
2023-03-08T14:43:30.108Z,7.51
2023-03-08T14:46:00.733Z,7.52
2023-03-08T14:48:32.241Z,7.55
2023-03-08T14:51:04.699Z,7.62
2023-03-08T14:53:41.444Z,7.63
2023-03-08T14:56:15.948Z,7.64
2023-03-08T14:58:51.006Z,7.64
2023-03-08T15:01:32.072Z,7.62
2023-03-08T15:03:58.763Z,7.59
2023-03-08T15:06:29.244Z,7.55
2023-03-08T15:08:57.178Z,7.50
2023-03-08T15:11:23.894Z,7.44
2023-03-08T15:13:50.727Z,7.39
2023-03-08T15:16:17.342Z,7.33
2023-03-08T15:18:43.735Z,7.30
2023-03-08T15:21:21.877Z,7.27
2023-03-08T15:23:49.113Z,7.24
2023-03-08T15:26:22.149Z,7.18
2023-03-08T15:28:48.519Z,7.15
2023-03-08T15:31:14.885Z,7.12
2023-03-08T15:33:41.664Z,7.09
2023-03-08T15:36:14.467Z,7.05
2023-03-08T15:38:41.134Z,7.03
2023-03-08T15:41:11.868Z,6.98
2023-03-08T15:43:38.244Z,6.93
2023-03-08T15:46:04.964Z,6.87
2023-03-08T15:48:31.426Z,6.84
2023-03-08T15:50:58.440Z,6.78
2023-03-08T15:53:34.859Z,6.73
2023-03-08T15:56:01.548Z,6.71
2023-03-08T15:58:27.979Z,6.68
2023-03-08T16:00:54.419Z,6.66
2023-03-08T16:03:30.538Z,6.64
2023-03-08T16:05:58.512Z,6.61
2023-03-08T16:08:25.046Z,6.59
2023-03-08T16:10:52.056Z,6.55
2023-03-08T16:13:18.839Z,6.51
2023-03-08T16:15:45.339Z,6.48
2023-03-08T16:18:11.717Z,6.45
2023-03-08T16:20:42.245Z,6.43
2023-03-08T16:23:08.746Z,6.41
2023-03-08T16:25:35.143Z,6.39
2023-03-08T16:28:02.161Z,6.37
2023-03-08T16:30:28.577Z,6.35
2023-03-08T16:32:59.310Z,6.32
2023-03-08T16:35:29.181Z,6.29
2023-03-08T16:37:55.925Z,6.24
2023-03-08T16:40:22.326Z,6.20
2023-03-08T16:42:51.507Z,6.16
2023-03-08T16:45:17.883Z,6.14
2023-03-08T16:47:44.233Z,6.11
2023-03-08T16:50:13.124Z,6.09
2023-03-08T16:52:39.499Z,6.04
2023-03-08T16:55:06.645Z,6.01
2023-03-08T16:57:33.039Z,6.00
2023-03-08T16:59:59.384Z,5.97
2023-03-08T17:02:25.935Z,5.96
2023-03-08T17:04:55.228Z,5.93
2023-03-08T17:07:21.554Z,5.90
2023-03-08T17:09:47.905Z,5.87
2023-03-08T17:12:14.468Z,5.84
2023-03-08T17:14:41.141Z,5.81
2023-03-08T17:17:07.556Z,5.78
2023-03-08T17:19:33.939Z,5.77
2023-03-08T17:22:00.290Z,5.74
2023-03-08T17:24:27.905Z,5.71
2023-03-08T17:26:54.709Z,5.67
2023-03-08T17:29:21.201Z,5.66
2023-03-08T17:31:47.730Z,5.63
2023-03-08T17:34:14.754Z,5.61
2023-03-08T17:36:41.282Z,5.58
2023-03-08T17:39:08.017Z,5.57
2023-03-08T17:41:34.560Z,5.55
2023-03-08T17:44:00.990Z,5.52
2023-03-08T17:46:27.753Z,5.49
2023-03-08T17:48:55.268Z,5.47
2023-03-08T17:51:25.228Z,5.46
2023-03-08T17:53:52.246Z,5.43
2023-03-08T17:56:21.439Z,5.41
2023-03-08T17:58:48.898Z,5.38
2023-03-08T18:01:28.925Z,5.35
2023-03-08T18:03:57.486Z,5.33
2023-03-08T18:06:35.453Z,5.32
2023-03-08T18:09:05.414Z,5.29
2023-03-08T18:11:37.218Z,5.28
2023-03-08T18:14:08.667Z,5.27
2023-03-08T18:16:35.350Z,5.26
2023-03-08T18:19:02.901Z,5.26
2023-03-08T18:21:31.830Z,5.24
2023-03-08T18:23:58.594Z,5.24
2023-03-08T18:26:25.023Z,5.25
2023-03-08T18:28:51.794Z,5.24
2023-03-08T18:31:23.212Z,5.24
2023-03-08T18:33:50.219Z,5.24
2023-03-08T18:36:16.612Z,5.25
2023-03-08T18:38:43.334Z,5.23
2023-03-08T18:41:17.895Z,5.23
2023-03-08T18:43:45.210Z,5.21
2023-03-08T18:46:13.284Z,5.20
2023-03-08T18:48:40.580Z,5.18
2023-03-08T18:51:07.161Z,5.17
2023-03-08T18:53:33.612Z,5.16
2023-03-08T18:56:01.966Z,5.13
2023-03-08T18:58:28.777Z,5.12
2023-03-08T19:00:58.794Z,5.09
2023-03-08T19:03:26.833Z,5.07
2023-03-08T19:05:53.319Z,5.06
2023-03-08T19:08:19.969Z,5.05
2023-03-08T19:10:46.331Z,5.04
2023-03-08T19:13:12.696Z,5.03
2023-03-08T19:15:39.456Z,5.01
2023-03-08T19:18:06.862Z,5.01
2023-03-08T19:20:37.924Z,4.99
2023-03-08T19:23:04.439Z,4.98
2023-03-08T19:25:32.345Z,4.97
2023-03-08T19:27:58.743Z,4.97
2023-03-08T19:30:28.154Z,4.96
2023-03-08T19:32:56.031Z,4.95
2023-03-08T19:35:22.510Z,4.94
2023-03-08T19:37:48.884Z,4.92
2023-03-08T19:40:15.424Z,4.90
2023-03-08T19:42:41.765Z,4.90
2023-03-08T19:45:09.098Z,4.90
2023-03-08T19:47:35.458Z,4.91
2023-03-08T19:50:02.223Z,4.92
2023-03-08T19:52:28.648Z,4.92
2023-03-08T19:54:54.995Z,4.90
2023-03-08T19:57:21.338Z,4.90
2023-03-08T19:59:47.718Z,4.91
2023-03-08T20:02:14.108Z,4.90
2023-03-08T20:04:43.586Z,4.91
2023-03-08T20:07:10.027Z,4.90
2023-03-08T20:09:36.379Z,4.91
2023-03-08T20:12:02.748Z,4.92
2023-03-08T20:14:29.267Z,4.91
2023-03-08T20:16:56.709Z,4.90
2023-03-08T20:19:23.313Z,4.91
2023-03-08T20:21:49.745Z,4.91
2023-03-08T20:24:18.684Z,4.91
2023-03-08T20:26:45.130Z,4.92
2023-03-08T20:29:11.501Z,4.91
2023-03-08T20:31:37.886Z,4.90
2023-03-08T20:34:04.439Z,4.89
2023-03-08T20:36:30.800Z,4.89
2023-03-08T20:38:58.015Z,4.89
2023-03-08T20:41:24.566Z,4.90
2023-03-08T20:43:52.019Z,4.88
2023-03-08T20:46:20.340Z,4.88
2023-03-08T20:48:47.115Z,4.87
2023-03-08T20:51:17.007Z,4.85
2023-03-08T20:53:44.387Z,4.85
2023-03-08T20:56:15.443Z,4.84
2023-03-08T20:58:42.952Z,4.84
2023-03-08T21:01:21.709Z,4.84
2023-03-08T21:03:48.734Z,4.85
2023-03-08T21:06:21.470Z,4.83
2023-03-08T21:08:48.939Z,4.83
2023-03-08T21:11:22.291Z,4.81
2023-03-08T21:13:50.100Z,4.81
2023-03-08T21:16:18.067Z,4.77
2023-03-08T21:18:48.035Z,4.77
2023-03-08T21:21:23.344Z,4.76
2023-03-08T21:23:52.370Z,4.73
2023-03-08T21:26:20.633Z,4.73
2023-03-08T21:28:47.098Z,4.72
2023-03-08T21:31:13.764Z,4.71
2023-03-08T21:33:40.142Z,4.68
2023-03-08T21:36:07.024Z,4.66
2023-03-08T21:38:33.454Z,4.65
2023-03-08T21:40:59.797Z,4.65
2023-03-08T21:43:26.371Z,4.63
2023-03-08T21:45:52.861Z,4.62
2023-03-08T21:48:19.237Z,4.61
2023-03-08T21:50:45.701Z,4.60
2023-03-08T21:53:12.256Z,4.61
2023-03-08T21:55:45.294Z,4.61
2023-03-08T21:58:11.737Z,4.61
2023-03-08T22:00:38.071Z,4.59
2023-03-08T22:03:04.467Z,4.59
2023-03-08T22:05:30.879Z,4.60
2023-03-08T22:07:57.309Z,4.60
2023-03-08T22:10:23.821Z,4.59
2023-03-08T22:12:50.184Z,4.60
2023-03-08T22:15:16.621Z,4.60
2023-03-08T22:17:43.321Z,4.59
2023-03-08T22:20:10.784Z,4.59
2023-03-08T22:22:38.043Z,4.59
2023-03-08T22:25:04.996Z,4.61
2023-03-08T22:27:32.119Z,4.61
2023-03-08T22:29:58.873Z,4.62
2023-03-08T22:32:25.667Z,4.62
2023-03-08T22:34:52.179Z,4.63
2023-03-08T22:37:18.509Z,4.62
2023-03-08T22:39:44.918Z,4.62
2023-03-08T22:42:11.308Z,4.62
2023-03-08T22:44:37.861Z,4.62
2023-03-08T22:47:04.405Z,4.62
2023-03-08T22:49:30.790Z,4.61
2023-03-08T22:51:57.339Z,4.61
2023-03-08T22:54:23.741Z,4.60
2023-03-08T22:56:50.347Z,4.61
2023-03-08T22:59:16.929Z,4.62
2023-03-08T23:01:43.451Z,4.62
2023-03-08T23:04:10.554Z,4.62
2023-03-08T23:06:36.979Z,4.62
2023-03-08T23:09:10.274Z,4.61
2023-03-08T23:11:37.070Z,4.60
2023-03-08T23:14:04.036Z,4.60
2023-03-08T23:16:30.580Z,4.58
2023-03-08T23:18:57.028Z,4.58
2023-03-08T23:21:26.378Z,4.57
2023-03-08T23:26:23.791Z,4.52
2023-03-08T23:28:50.872Z,4.50
2023-03-08T23:31:19.998Z,4.50
2023-03-08T23:33:47.044Z,4.49
2023-03-08T23:36:16.263Z,4.49
2023-03-08T23:38:43.095Z,4.46
2023-03-08T23:41:11.485Z,4.45
2023-03-08T23:43:38.601Z,4.44
2023-03-08T23:46:10.595Z,4.44
2023-03-08T23:48:37.015Z,4.40
2023-03-08T23:51:05.764Z,4.36
2023-03-08T23:53:32.661Z,4.36
2023-03-08T23:55:59.314Z,4.36
2023-03-08T23:58:25.908Z,4.36
